sensor_id;sensor_type;location;lat;lon;timestamp;P1;P2;P0
52672;PMS5003;38568;53.260;-2.504;2023-06-14T00:00:59;21;21;
52672;PMS5003;38568;53.260;-2.504;2023-06-14T00:03:24;20;20;
52672;PMS5003;38568;53.260;-2.504;2023-06-14T00:05:50;20;20;
52672;PMS5003;38568;53.260;-2.504;2023-06-14T00:08:16;22;22;
52672;PMS5003;38568;53.260;-2.504;2023-06-14T00:10:41;20;20;
52672;PMS5003;38568;53.260;-2.504;2023-06-14T00:13:06;19;19;
52672;PMS5003;38568;53.260;-2.504;2023-06-14T00:15:32;20;19;
52672;PMS5003;38568;53.260;-2.504;2023-06-14T00:17:57;23;21;
52672;PMS5003;38568;53.260;-2.504;2023-06-14T00:20:23;20;20;
52672;PMS5003;38568;53.260;-2.504;2023-06-14T00:22:49;21;20;
52672;PMS5003;38568;53.260;-2.504;2023-06-14T00:25:14;20;20;
52672;PMS5003;38568;53.260;-2.504;2023-06-14T00:27:39;19;19;
52672;PMS5003;38568;53.260;-2.504;2023-06-14T00:30:05;24;24;
52672;PMS5003;38568;53.260;-2.504;2023-06-14T00:32:30;19;19;
52672;PMS5003;38568;53.260;-2.504;2023-06-14T00:34:56;21;21;
52672;PMS5003;38568;53.260;-2.504;2023-06-14T00:37:22;20;19;
52672;PMS5003;38568;53.260;-2.504;2023-06-14T00:39:47;19;18;
52672;PMS5003;38568;53.260;-2.504;2023-06-14T00:44:39;22;22;
52672;PMS5003;38568;53.260;-2.504;2023-06-14T00:47:04;24;24;
52672;PMS5003;38568;53.260;-2.504;2023-06-14T00:49:29;20;19;
52672;PMS5003;38568;53.260;-2.504;2023-06-14T00:51:55;22;21;
52672;PMS5003;38568;53.260;-2.504;2023-06-14T00:54:21;18;18;
52672;PMS5003;38568;53.260;-2.504;2023-06-14T00:56:46;20;20;
52672;PMS5003;38568;53.260;-2.504;2023-06-14T00:59:11;18;17;
52672;PMS5003;38568;53.260;-2.504;2023-06-14T01:01:37;20;20;
52672;PMS5003;38568;53.260;-2.504;2023-06-14T01:04:03;21;21;
52672;PMS5003;38568;53.260;-2.504;2023-06-14T01:06:30;19;19;
52672;PMS5003;38568;53.260;-2.504;2023-06-14T01:08:57;21;21;
52672;PMS5003;38568;53.260;-2.504;2023-06-14T01:11:22;17;17;
52672;PMS5003;38568;53.260;-2.504;2023-06-14T01:13:46;20;20;
52672;PMS5003;38568;53.260;-2.504;2023-06-14T01:16:11;20;20;
52672;PMS5003;38568;53.260;-2.504;2023-06-14T01:18:37;19;19;
52672;PMS5003;38568;53.260;-2.504;2023-06-14T01:21:03;22;20;
52672;PMS5003;38568;53.260;-2.504;2023-06-14T01:23:29;19;18;
52672;PMS5003;38568;53.260;-2.504;2023-06-14T01:25:54;19;19;
52672;PMS5003;38568;53.260;-2.504;2023-06-14T01:28:20;21;21;
52672;PMS5003;38568;53.260;-2.504;2023-06-14T01:30:45;22;20;
52672;PMS5003;38568;53.260;-2.504;2023-06-14T01:33:10;19;19;
52672;PMS5003;38568;53.260;-2.504;2023-06-14T01:35:35;16;16;
52672;PMS5003;38568;53.260;-2.504;2023-06-14T01:38:00;18;18;
52672;PMS5003;38568;53.260;-2.504;2023-06-14T01:40:26;23;22;
52672;PMS5003;38568;53.260;-2.504;2023-06-14T01:42:51;19;18;
52672;PMS5003;38568;53.260;-2.504;2023-06-14T01:45:17;17;17;
52672;PMS5003;38568;53.260;-2.504;2023-06-14T01:47:43;20;19;
52672;PMS5003;38568;53.260;-2.504;2023-06-14T01:50:09;19;19;
52672;PMS5003;38568;53.260;-2.504;2023-06-14T01:52:36;21;20;
52672;PMS5003;38568;53.260;-2.504;2023-06-14T01:54:59;20;20;
52672;PMS5003;38568;53.260;-2.504;2023-06-14T01:57:24;20;20;
52672;PMS5003;38568;53.260;-2.504;2023-06-14T01:59:50;21;20;
52672;PMS5003;38568;53.260;-2.504;2023-06-14T02:02:16;18;18;
52672;PMS5003;38568;53.260;-2.504;2023-06-14T02:04:41;21;21;
52672;PMS5003;38568;53.260;-2.504;2023-06-14T02:07:07;19;19;
52672;PMS5003;38568;53.260;-2.504;2023-06-14T02:09:33;17;16;
52672;PMS5003;38568;53.260;-2.504;2023-06-14T02:11:58;20;19;
52672;PMS5003;38568;53.260;-2.504;2023-06-14T02:14:24;19;19;
52672;PMS5003;38568;53.260;-2.504;2023-06-14T02:16:50;21;21;
52672;PMS5003;38568;53.260;-2.504;2023-06-14T02:19:16;23;21;
52672;PMS5003;38568;53.260;-2.504;2023-06-14T02:21:41;21;21;
52672;PMS5003;38568;53.260;-2.504;2023-06-14T02:24:07;21;20;
52672;PMS5003;38568;53.260;-2.504;2023-06-14T02:26:33;24;23;
52672;PMS5003;38568;53.260;-2.504;2023-06-14T02:28:58;19;19;
52672;PMS5003;38568;53.260;-2.504;2023-06-14T02:31:24;18;17;
52672;PMS5003;38568;53.260;-2.504;2023-06-14T02:33:50;19;18;
52672;PMS5003;38568;53.260;-2.504;2023-06-14T02:36:15;20;19;
52672;PMS5003;38568;53.260;-2.504;2023-06-14T02:38:41;19;19;
52672;PMS5003;38568;53.260;-2.504;2023-06-14T02:41:07;19;19;
52672;PMS5003;38568;53.260;-2.504;2023-06-14T02:43:32;15;15;
52672;PMS5003;38568;53.260;-2.504;2023-06-14T02:45:58;19;19;
52672;PMS5003;38568;53.260;-2.504;2023-06-14T02:48:24;20;20;
52672;PMS5003;38568;53.260;-2.504;2023-06-14T02:50:54;15;15;
52672;PMS5003;38568;53.260;-2.504;2023-06-14T02:53:15;18;18;
52672;PMS5003;38568;53.260;-2.504;2023-06-14T02:55:41;17;17;
52672;PMS5003;38568;53.260;-2.504;2023-06-14T02:58:06;19;19;
52672;PMS5003;38568;53.260;-2.504;2023-06-14T03:00:32;17;16;
52672;PMS5003;38568;53.260;-2.504;2023-06-14T03:02:58;20;20;
52672;PMS5003;38568;53.260;-2.504;2023-06-14T03:05:24;20;19;
52672;PMS5003;38568;53.260;-2.504;2023-06-14T03:07:49;21;20;
52672;PMS5003;38568;53.260;-2.504;2023-06-14T03:10:14;20;20;
52672;PMS5003;38568;53.260;-2.504;2023-06-14T03:12:40;20;18;
52672;PMS5003;38568;53.260;-2.504;2023-06-14T03:15:05;22;22;
52672;PMS5003;38568;53.260;-2.504;2023-06-14T03:17:31;18;17;
52672;PMS5003;38568;53.260;-2.504;2023-06-14T03:19:56;22;21;
52672;PMS5003;38568;53.260;-2.504;2023-06-14T03:22:21;17;16;
52672;PMS5003;38568;53.260;-2.504;2023-06-14T03:24:47;19;19;
52672;PMS5003;38568;53.260;-2.504;2023-06-14T03:27:12;17;17;
52672;PMS5003;38568;53.260;-2.504;2023-06-14T03:29:38;17;17;
52672;PMS5003;38568;53.260;-2.504;2023-06-14T03:32:04;18;18;
52672;PMS5003;38568;53.260;-2.504;2023-06-14T03:34:29;17;17;
52672;PMS5003;38568;53.260;-2.504;2023-06-14T03:36:55;21;20;
52672;PMS5003;38568;53.260;-2.504;2023-06-14T03:39:20;17;16;
52672;PMS5003;38568;53.260;-2.504;2023-06-14T03:41:46;20;19;
52672;PMS5003;38568;53.260;-2.504;2023-06-14T03:44:13;17;17;
52672;PMS5003;38568;53.260;-2.504;2023-06-14T03:46:38;18;18;
52672;PMS5003;38568;53.260;-2.504;2023-06-14T03:49:03;24;23;
52672;PMS5003;38568;53.260;-2.504;2023-06-14T03:51:29;18;18;
52672;PMS5003;38568;53.260;-2.504;2023-06-14T03:53:54;18;17;
52672;PMS5003;38568;53.260;-2.504;2023-06-14T03:56:20;19;17;
52672;PMS5003;38568;53.260;-2.504;2023-06-14T03:58:46;17;16;
52672;PMS5003;38568;53.260;-2.504;2023-06-14T04:01:12;21;19;
52672;PMS5003;38568;53.260;-2.504;2023-06-14T04:03:37;18;18;
52672;PMS5003;38568;53.260;-2.504;2023-06-14T04:06:03;19;19;
52672;PMS5003;38568;53.260;-2.504;2023-06-14T04:08:29;16;16;
52672;PMS5003;38568;53.260;-2.504;2023-06-14T04:10:54;18;17;
52672;PMS5003;38568;53.260;-2.504;2023-06-14T04:13:20;22;21;
52672;PMS5003;38568;53.260;-2.504;2023-06-14T04:15:45;18;16;
52672;PMS5003;38568;53.260;-2.504;2023-06-14T04:18:11;17;16;
52672;PMS5003;38568;53.260;-2.504;2023-06-14T04:20:36;19;18;
52672;PMS5003;38568;53.260;-2.504;2023-06-14T04:25:28;19;19;
52672;PMS5003;38568;53.260;-2.504;2023-06-14T04:27:54;20;20;
52672;PMS5003;38568;53.260;-2.504;2023-06-14T04:30:19;19;18;
52672;PMS5003;38568;53.260;-2.504;2023-06-14T04:32:45;22;20;
52672;PMS5003;38568;53.260;-2.504;2023-06-14T04:35:10;21;21;
52672;PMS5003;38568;53.260;-2.504;2023-06-14T04:37:36;18;18;
52672;PMS5003;38568;53.260;-2.504;2023-06-14T04:40:02;21;20;
52672;PMS5003;38568;53.260;-2.504;2023-06-14T04:42:27;22;22;
52672;PMS5003;38568;53.260;-2.504;2023-06-14T04:44:52;18;18;
52672;PMS5003;38568;53.260;-2.504;2023-06-14T04:47:18;24;22;
52672;PMS5003;38568;53.260;-2.504;2023-06-14T04:49:43;21;21;
52672;PMS5003;38568;53.260;-2.504;2023-06-14T04:52:09;17;17;
52672;PMS5003;38568;53.260;-2.504;2023-06-14T04:54:35;19;19;
52672;PMS5003;38568;53.260;-2.504;2023-06-14T04:57:00;23;23;
52672;PMS5003;38568;53.260;-2.504;2023-06-14T04:59:25;20;19;
52672;PMS5003;38568;53.260;-2.504;2023-06-14T05:01:51;18;18;
52672;PMS5003;38568;53.260;-2.504;2023-06-14T05:04:16;19;19;
52672;PMS5003;38568;53.260;-2.504;2023-06-14T05:06:42;19;19;
52672;PMS5003;38568;53.260;-2.504;2023-06-14T05:09:07;22;22;
52672;PMS5003;38568;53.260;-2.504;2023-06-14T05:11:33;16;16;
52672;PMS5003;38568;53.260;-2.504;2023-06-14T05:13:59;19;19;
52672;PMS5003;38568;53.260;-2.504;2023-06-14T05:16:24;17;17;
52672;PMS5003;38568;53.260;-2.504;2023-06-14T05:18:49;24;24;
52672;PMS5003;38568;53.260;-2.504;2023-06-14T05:21:15;21;20;
52672;PMS5003;38568;53.260;-2.504;2023-06-14T05:23:40;20;19;
52672;PMS5003;38568;53.260;-2.504;2023-06-14T05:26:06;18;18;
52672;PMS5003;38568;53.260;-2.504;2023-06-14T05:28:32;21;21;
52672;PMS5003;38568;53.260;-2.504;2023-06-14T05:30:58;19;19;
52672;PMS5003;38568;53.260;-2.504;2023-06-14T05:33:23;19;18;
52672;PMS5003;38568;53.260;-2.504;2023-06-14T05:35:49;19;19;
52672;PMS5003;38568;53.260;-2.504;2023-06-14T05:38:15;18;18;
52672;PMS5003;38568;53.260;-2.504;2023-06-14T05:40:40;20;19;
52672;PMS5003;38568;53.260;-2.504;2023-06-14T05:43:06;19;18;
52672;PMS5003;38568;53.260;-2.504;2023-06-14T05:45:31;19;17;
52672;PMS5003;38568;53.260;-2.504;2023-06-14T05:47:57;20;19;
52672;PMS5003;38568;53.260;-2.504;2023-06-14T05:50:23;17;16;
52672;PMS5003;38568;53.260;-2.504;2023-06-14T05:52:54;16;15;
52672;PMS5003;38568;53.260;-2.504;2023-06-14T05:55:15;14;14;
52672;PMS5003;38568;53.260;-2.504;2023-06-14T05:57:40;14;14;
52672;PMS5003;38568;53.260;-2.504;2023-06-14T06:00:07;17;17;
52672;PMS5003;38568;53.260;-2.504;2023-06-14T06:02:32;16;16;
52672;PMS5003;38568;53.260;-2.504;2023-06-14T06:04:57;16;16;
52672;PMS5003;38568;53.260;-2.504;2023-06-14T06:07:23;17;17;
52672;PMS5003;38568;53.260;-2.504;2023-06-14T06:09:49;16;15;
52672;PMS5003;38568;53.260;-2.504;2023-06-14T06:12:15;17;17;
52672;PMS5003;38568;53.260;-2.504;2023-06-14T06:14:41;15;15;
52672;PMS5003;38568;53.260;-2.504;2023-06-14T06:17:06;14;14;
52672;PMS5003;38568;53.260;-2.504;2023-06-14T06:19:32;14;13;
52672;PMS5003;38568;53.260;-2.504;2023-06-14T06:21:58;15;15;
52672;PMS5003;38568;53.260;-2.504;2023-06-14T06:24:24;17;16;
52672;PMS5003;38568;53.260;-2.504;2023-06-14T06:26:50;14;14;
52672;PMS5003;38568;53.260;-2.504;2023-06-14T06:29:15;16;16;
52672;PMS5003;38568;53.260;-2.504;2023-06-14T06:31:41;15;15;
52672;PMS5003;38568;53.260;-2.504;2023-06-14T06:34:07;15;14;
52672;PMS5003;38568;53.260;-2.504;2023-06-14T06:36:33;12;12;
52672;PMS5003;38568;53.260;-2.504;2023-06-14T06:38:59;14;14;
52672;PMS5003;38568;53.260;-2.504;2023-06-14T06:41:25;13;13;
52672;PMS5003;38568;53.260;-2.504;2023-06-14T06:43:50;16;16;
52672;PMS5003;38568;53.260;-2.504;2023-06-14T06:46:16;17;17;
52672;PMS5003;38568;53.260;-2.504;2023-06-14T06:48:42;17;15;
52672;PMS5003;38568;53.260;-2.504;2023-06-14T06:51:07;13;13;
52672;PMS5003;38568;53.260;-2.504;2023-06-14T06:53:33;15;14;
52672;PMS5003;38568;53.260;-2.504;2023-06-14T06:55:59;15;15;
52672;PMS5003;38568;53.260;-2.504;2023-06-14T06:58:25;14;14;
52672;PMS5003;38568;53.260;-2.504;2023-06-14T07:00:51;14;14;
52672;PMS5003;38568;53.260;-2.504;2023-06-14T07:03:17;12;12;
52672;PMS5003;38568;53.260;-2.504;2023-06-14T07:05:42;13;13;
52672;PMS5003;38568;53.260;-2.504;2023-06-14T07:08:08;13;13;
52672;PMS5003;38568;53.260;-2.504;2023-06-14T07:10:34;13;12;
52672;PMS5003;38568;53.260;-2.504;2023-06-14T07:13:00;12;12;
52672;PMS5003;38568;53.260;-2.504;2023-06-14T07:15:25;17;16;
52672;PMS5003;38568;53.260;-2.504;2023-06-14T07:17:51;14;13;
52672;PMS5003;38568;53.260;-2.504;2023-06-14T07:20:17;13;13;
52672;PMS5003;38568;53.260;-2.504;2023-06-14T07:22:42;16;15;
52672;PMS5003;38568;53.260;-2.504;2023-06-14T07:25:08;11;11;
52672;PMS5003;38568;53.260;-2.504;2023-06-14T07:27:34;12;11;
52672;PMS5003;38568;53.260;-2.504;2023-06-14T07:29:59;13;13;
52672;PMS5003;38568;53.260;-2.504;2023-06-14T07:32:25;12;11;
52672;PMS5003;38568;53.260;-2.504;2023-06-14T07:34:51;13;12;
52672;PMS5003;38568;53.260;-2.504;2023-06-14T07:37:16;11;11;
52672;PMS5003;38568;53.260;-2.504;2023-06-14T07:39:42;9;9;
52672;PMS5003;38568;53.260;-2.504;2023-06-14T07:42:07;11;11;
52672;PMS5003;38568;53.260;-2.504;2023-06-14T07:44:32;11;11;
52672;PMS5003;38568;53.260;-2.504;2023-06-14T07:46:57;10;10;
52672;PMS5003;38568;53.260;-2.504;2023-06-14T07:49:23;13;13;
52672;PMS5003;38568;53.260;-2.504;2023-06-14T07:51:49;11;10;
52672;PMS5003;38568;53.260;-2.504;2023-06-14T07:54:15;12;11;
52672;PMS5003;38568;53.260;-2.504;2023-06-14T07:56:40;12;12;
52672;PMS5003;38568;53.260;-2.504;2023-06-14T07:59:06;12;11;
52672;PMS5003;38568;53.260;-2.504;2023-06-14T08:01:31;15;14;
52672;PMS5003;38568;53.260;-2.504;2023-06-14T08:03:57;13;11;
52672;PMS5003;38568;53.260;-2.504;2023-06-14T08:06:23;11;11;
52672;PMS5003;38568;53.260;-2.504;2023-06-14T08:08:49;10;10;
52672;PMS5003;38568;53.260;-2.504;2023-06-14T08:11:15;10;10;
52672;PMS5003;38568;53.260;-2.504;2023-06-14T08:13:40;11;11;
52672;PMS5003;38568;53.260;-2.504;2023-06-14T08:16:06;12;11;
52672;PMS5003;38568;53.260;-2.504;2023-06-14T08:18:32;11;11;
52672;PMS5003;38568;53.260;-2.504;2023-06-14T08:20:58;10;10;
52672;PMS5003;38568;53.260;-2.504;2023-06-14T08:23:24;11;11;
52672;PMS5003;38568;53.260;-2.504;2023-06-14T08:25:49;9;9;
52672;PMS5003;38568;53.260;-2.504;2023-06-14T08:28:15;12;12;
52672;PMS5003;38568;53.260;-2.504;2023-06-14T08:30:41;9;9;
52672;PMS5003;38568;53.260;-2.504;2023-06-14T08:33:07;10;10;
52672;PMS5003;38568;53.260;-2.504;2023-06-14T08:35:33;11;11;
52672;PMS5003;38568;53.260;-2.504;2023-06-14T08:37:58;9;9;
52672;PMS5003;38568;53.260;-2.504;2023-06-14T08:40:24;9;8;
52672;PMS5003;38568;53.260;-2.504;2023-06-14T08:42:50;9;9;
52672;PMS5003;38568;53.260;-2.504;2023-06-14T08:45:15;10;10;
52672;PMS5003;38568;53.260;-2.504;2023-06-14T08:47:41;11;11;
52672;PMS5003;38568;53.260;-2.504;2023-06-14T08:50:07;10;10;
52672;PMS5003;38568;53.260;-2.504;2023-06-14T08:52:33;10;10;
52672;PMS5003;38568;53.260;-2.504;2023-06-14T08:54:58;9;9;
52672;PMS5003;38568;53.260;-2.504;2023-06-14T08:57:24;9;9;
52672;PMS5003;38568;53.260;-2.504;2023-06-14T08:59:49;10;10;
52672;PMS5003;38568;53.260;-2.504;2023-06-14T09:02:15;9;9;
52672;PMS5003;38568;53.260;-2.504;2023-06-14T09:04:41;11;11;
52672;PMS5003;38568;53.260;-2.504;2023-06-14T09:07:07;8;8;
52672;PMS5003;38568;53.260;-2.504;2023-06-14T09:09:32;12;11;
52672;PMS5003;38568;53.260;-2.504;2023-06-14T09:11:58;9;9;
52672;PMS5003;38568;53.260;-2.504;2023-06-14T09:14:24;10;10;
52672;PMS5003;38568;53.260;-2.504;2023-06-14T09:16:52;10;10;
52672;PMS5003;38568;53.260;-2.504;2023-06-14T09:21:40;11;11;
52672;PMS5003;38568;53.260;-2.504;2023-06-14T09:24:06;11;11;
52672;PMS5003;38568;53.260;-2.504;2023-06-14T09:26:31;14;13;
52672;PMS5003;38568;53.260;-2.504;2023-06-14T09:28:56;12;12;
52672;PMS5003;38568;53.260;-2.504;2023-06-14T09:31:22;12;11;
52672;PMS5003;38568;53.260;-2.504;2023-06-14T09:33:48;12;12;
52672;PMS5003;38568;53.260;-2.504;2023-06-14T09:36:14;12;12;
52672;PMS5003;38568;53.260;-2.504;2023-06-14T09:38:39;10;10;
52672;PMS5003;38568;53.260;-2.504;2023-06-14T09:41:04;11;10;
52672;PMS5003;38568;53.260;-2.504;2023-06-14T09:43:30;10;9;
52672;PMS5003;38568;53.260;-2.504;2023-06-14T09:45:56;9;9;
52672;PMS5003;38568;53.260;-2.504;2023-06-14T09:48:22;11;11;
52672;PMS5003;38568;53.260;-2.504;2023-06-14T09:50:48;11;11;
52672;PMS5003;38568;53.260;-2.504;2023-06-14T09:53:13;12;11;
52672;PMS5003;38568;53.260;-2.504;2023-06-14T09:55:40;10;10;
52672;PMS5003;38568;53.260;-2.504;2023-06-14T09:58:05;11;10;
52672;PMS5003;38568;53.260;-2.504;2023-06-14T10:00:30;11;11;
52672;PMS5003;38568;53.260;-2.504;2023-06-14T10:02:57;12;12;
52672;PMS5003;38568;53.260;-2.504;2023-06-14T10:05:21;11;11;
52672;PMS5003;38568;53.260;-2.504;2023-06-14T10:07:48;12;12;
52672;PMS5003;38568;53.260;-2.504;2023-06-14T10:10:13;11;11;
52672;PMS5003;38568;53.260;-2.504;2023-06-14T10:12:38;12;12;
52672;PMS5003;38568;53.260;-2.504;2023-06-14T10:15:05;10;10;
52672;PMS5003;38568;53.260;-2.504;2023-06-14T10:17:33;9;9;
52672;PMS5003;38568;53.260;-2.504;2023-06-14T10:19:58;11;11;
52672;PMS5003;38568;53.260;-2.504;2023-06-14T10:22:22;13;13;
52672;PMS5003;38568;53.260;-2.504;2023-06-14T10:24:47;10;10;
52672;PMS5003;38568;53.260;-2.504;2023-06-14T10:27:13;13;12;
52672;PMS5003;38568;53.260;-2.504;2023-06-14T10:32:04;12;12;
52672;PMS5003;38568;53.260;-2.504;2023-06-14T10:34:30;15;15;
52672;PMS5003;38568;53.260;-2.504;2023-06-14T10:37:00;10;10;
52672;PMS5003;38568;53.260;-2.504;2023-06-14T10:39:21;11;11;
52672;PMS5003;38568;53.260;-2.504;2023-06-14T10:41:51;14;14;
52672;PMS5003;38568;53.260;-2.504;2023-06-14T10:46:38;14;13;
52672;PMS5003;38568;53.260;-2.504;2023-06-14T10:49:04;13;12;
52672;PMS5003;38568;53.260;-2.504;2023-06-14T10:51:30;12;12;
52672;PMS5003;38568;53.260;-2.504;2023-06-14T10:53:56;13;13;
52672;PMS5003;38568;53.260;-2.504;2023-06-14T10:56:23;12;12;
52672;PMS5003;38568;53.260;-2.504;2023-06-14T10:58:47;14;14;
52672;PMS5003;38568;53.260;-2.504;2023-06-14T11:01:13;13;12;
52672;PMS5003;38568;53.260;-2.504;2023-06-14T11:03:43;13;12;
52672;PMS5003;38568;53.260;-2.504;2023-06-14T11:06:11;14;13;
52672;PMS5003;38568;53.260;-2.504;2023-06-14T11:08:39;15;14;
52672;PMS5003;38568;53.260;-2.504;2023-06-14T11:10:57;15;15;
52672;PMS5003;38568;53.260;-2.504;2023-06-14T11:13:23;15;14;
52672;PMS5003;38568;53.260;-2.504;2023-06-14T11:15:48;13;12;
52672;PMS5003;38568;53.260;-2.504;2023-06-14T11:18:13;13;13;
52672;PMS5003;38568;53.260;-2.504;2023-06-14T11:20:39;15;15;
52672;PMS5003;38568;53.260;-2.504;2023-06-14T11:23:04;14;14;
52672;PMS5003;38568;53.260;-2.504;2023-06-14T11:25:30;11;11;
52672;PMS5003;38568;53.260;-2.504;2023-06-14T11:27:56;12;12;
52672;PMS5003;38568;53.260;-2.504;2023-06-14T11:30:21;16;16;
52672;PMS5003;38568;53.260;-2.504;2023-06-14T11:32:46;19;18;
52672;PMS5003;38568;53.260;-2.504;2023-06-14T11:35:12;17;16;
52672;PMS5003;38568;53.260;-2.504;2023-06-14T11:37:37;14;14;
52672;PMS5003;38568;53.260;-2.504;2023-06-14T11:40:02;15;15;
52672;PMS5003;38568;53.260;-2.504;2023-06-14T11:42:27;17;17;
52672;PMS5003;38568;53.260;-2.504;2023-06-14T11:44:52;27;25;
52672;PMS5003;38568;53.260;-2.504;2023-06-14T11:47:18;30;30;
52672;PMS5003;38568;53.260;-2.504;2023-06-14T11:49:43;25;24;
52672;PMS5003;38568;53.260;-2.504;2023-06-14T11:52:08;26;24;
52672;PMS5003;38568;53.260;-2.504;2023-06-14T11:54:34;24;23;
52672;PMS5003;38568;53.260;-2.504;2023-06-14T11:57:00;26;25;
52672;PMS5003;38568;53.260;-2.504;2023-06-14T11:59:25;18;18;
52672;PMS5003;38568;53.260;-2.504;2023-06-14T12:01:52;17;17;
52672;PMS5003;38568;53.260;-2.504;2023-06-14T12:06:42;17;17;
52672;PMS5003;38568;53.260;-2.504;2023-06-14T12:09:07;17;17;
52672;PMS5003;38568;53.260;-2.504;2023-06-14T12:11:32;17;16;
52672;PMS5003;38568;53.260;-2.504;2023-06-14T12:13:57;16;16;
52672;PMS5003;38568;53.260;-2.504;2023-06-14T12:16:29;18;18;
52672;PMS5003;38568;53.260;-2.504;2023-06-14T12:18:48;18;18;
52672;PMS5003;38568;53.260;-2.504;2023-06-14T12:21:13;18;18;
52672;PMS5003;38568;53.260;-2.504;2023-06-14T12:23:38;16;15;
52672;PMS5003;38568;53.260;-2.504;2023-06-14T12:26:09;19;18;
52672;PMS5003;38568;53.260;-2.504;2023-06-14T12:28:30;16;16;
52672;PMS5003;38568;53.260;-2.504;2023-06-14T12:30:54;15;15;
52672;PMS5003;38568;53.260;-2.504;2023-06-14T12:33:19;14;13;
52672;PMS5003;38568;53.260;-2.504;2023-06-14T12:35:44;17;17;
52672;PMS5003;38568;53.260;-2.504;2023-06-14T12:38:09;14;14;
52672;PMS5003;38568;53.260;-2.504;2023-06-14T12:40:35;17;14;
52672;PMS5003;38568;53.260;-2.504;2023-06-14T12:43:01;15;15;
52672;PMS5003;38568;53.260;-2.504;2023-06-14T12:45:26;17;17;
52672;PMS5003;38568;53.260;-2.504;2023-06-14T12:47:50;18;15;
52672;PMS5003;38568;53.260;-2.504;2023-06-14T12:50:16;13;13;
52672;PMS5003;38568;53.260;-2.504;2023-06-14T12:52:41;13;13;
52672;PMS5003;38568;53.260;-2.504;2023-06-14T12:55:06;13;13;
52672;PMS5003;38568;53.260;-2.504;2023-06-14T12:57:31;13;13;
52672;PMS5003;38568;53.260;-2.504;2023-06-14T12:59:56;13;13;
52672;PMS5003;38568;53.260;-2.504;2023-06-14T13:02:21;14;14;
52672;PMS5003;38568;53.260;-2.504;2023-06-14T13:04:46;15;15;
52672;PMS5003;38568;53.260;-2.504;2023-06-14T13:07:11;18;18;
52672;PMS5003;38568;53.260;-2.504;2023-06-14T13:09:37;12;12;
52672;PMS5003;38568;53.260;-2.504;2023-06-14T13:12:02;14;13;
52672;PMS5003;38568;53.260;-2.504;2023-06-14T13:14:27;14;14;
52672;PMS5003;38568;53.260;-2.504;2023-06-14T13:16:53;14;14;
52672;PMS5003;38568;53.260;-2.504;2023-06-14T13:19:18;15;15;
52672;PMS5003;38568;53.260;-2.504;2023-06-14T13:21:43;14;14;
52672;PMS5003;38568;53.260;-2.504;2023-06-14T13:24:08;15;14;
52672;PMS5003;38568;53.260;-2.504;2023-06-14T13:26:33;14;13;
52672;PMS5003;38568;53.260;-2.504;2023-06-14T13:28:59;12;12;
52672;PMS5003;38568;53.260;-2.504;2023-06-14T13:31:24;13;13;
52672;PMS5003;38568;53.260;-2.504;2023-06-14T13:33:50;16;15;
52672;PMS5003;38568;53.260;-2.504;2023-06-14T13:36:16;12;12;
52672;PMS5003;38568;53.260;-2.504;2023-06-14T13:38:42;14;14;
52672;PMS5003;38568;53.260;-2.504;2023-06-14T13:41:08;14;14;
52672;PMS5003;38568;53.260;-2.504;2023-06-14T13:43:34;12;12;
52672;PMS5003;38568;53.260;-2.504;2023-06-14T13:45:59;13;13;
52672;PMS5003;38568;53.260;-2.504;2023-06-14T13:48:25;12;12;
52672;PMS5003;38568;53.260;-2.504;2023-06-14T13:50:51;12;12;
52672;PMS5003;38568;53.260;-2.504;2023-06-14T13:53:17;12;12;
52672;PMS5003;38568;53.260;-2.504;2023-06-14T13:55:43;12;12;
52672;PMS5003;38568;53.260;-2.504;2023-06-14T13:58:08;11;11;
52672;PMS5003;38568;53.260;-2.504;2023-06-14T14:00:33;14;13;
52672;PMS5003;38568;53.260;-2.504;2023-06-14T14:02:58;13;13;
52672;PMS5003;38568;53.260;-2.504;2023-06-14T14:05:24;16;15;
52672;PMS5003;38568;53.260;-2.504;2023-06-14T14:07:48;13;12;
52672;PMS5003;38568;53.260;-2.504;2023-06-14T14:10:14;14;13;
52672;PMS5003;38568;53.260;-2.504;2023-06-14T14:12:39;13;13;
52672;PMS5003;38568;53.260;-2.504;2023-06-14T14:15:04;13;13;
52672;PMS5003;38568;53.260;-2.504;2023-06-14T14:17:29;15;14;
52672;PMS5003;38568;53.260;-2.504;2023-06-14T14:19:54;13;13;
52672;PMS5003;38568;53.260;-2.504;2023-06-14T14:22:19;13;12;
52672;PMS5003;38568;53.260;-2.504;2023-06-14T14:24:44;13;12;
52672;PMS5003;38568;53.260;-2.504;2023-06-14T14:27:10;11;11;
52672;PMS5003;38568;53.260;-2.504;2023-06-14T14:29:34;13;12;
52672;PMS5003;38568;53.260;-2.504;2023-06-14T14:31:59;14;13;
52672;PMS5003;38568;53.260;-2.504;2023-06-14T14:34:25;19;19;
52672;PMS5003;38568;53.260;-2.504;2023-06-14T14:36:50;12;12;
52672;PMS5003;38568;53.260;-2.504;2023-06-14T14:39:16;14;12;
52672;PMS5003;38568;53.260;-2.504;2023-06-14T14:41:41;14;13;
52672;PMS5003;38568;53.260;-2.504;2023-06-14T14:44:06;13;12;
52672;PMS5003;38568;53.260;-2.504;2023-06-14T14:46:31;14;13;
52672;PMS5003;38568;53.260;-2.504;2023-06-14T14:48:56;13;12;
52672;PMS5003;38568;53.260;-2.504;2023-06-14T14:51:21;17;17;
52672;PMS5003;38568;53.260;-2.504;2023-06-14T14:53:47;10;10;
52672;PMS5003;38568;53.260;-2.504;2023-06-14T14:56:12;15;15;
52672;PMS5003;38568;53.260;-2.504;2023-06-14T14:58:37;12;12;
52672;PMS5003;38568;53.260;-2.504;2023-06-14T15:01:02;12;12;
52672;PMS5003;38568;53.260;-2.504;2023-06-14T15:03:27;14;14;
52672;PMS5003;38568;53.260;-2.504;2023-06-14T15:05:52;13;13;
52672;PMS5003;38568;53.260;-2.504;2023-06-14T15:08:18;13;12;
52672;PMS5003;38568;53.260;-2.504;2023-06-14T15:10:43;12;12;
52672;PMS5003;38568;53.260;-2.504;2023-06-14T15:13:08;13;11;
52672;PMS5003;38568;53.260;-2.504;2023-06-14T15:15:33;12;11;
52672;PMS5003;38568;53.260;-2.504;2023-06-14T15:17:58;13;13;
52672;PMS5003;38568;53.260;-2.504;2023-06-14T15:20:23;12;12;
52672;PMS5003;38568;53.260;-2.504;2023-06-14T15:22:48;12;11;
52672;PMS5003;38568;53.260;-2.504;2023-06-14T15:25:13;11;11;
52672;PMS5003;38568;53.260;-2.504;2023-06-14T15:27:38;14;13;
52672;PMS5003;38568;53.260;-2.504;2023-06-14T15:30:03;11;11;
52672;PMS5003;38568;53.260;-2.504;2023-06-14T15:32:28;12;12;
52672;PMS5003;38568;53.260;-2.504;2023-06-14T15:34:54;12;11;
52672;PMS5003;38568;53.260;-2.504;2023-06-14T15:37:19;12;12;
52672;PMS5003;38568;53.260;-2.504;2023-06-14T15:39:44;14;14;
52672;PMS5003;38568;53.260;-2.504;2023-06-14T15:42:09;12;12;
52672;PMS5003;38568;53.260;-2.504;2023-06-14T15:44:34;13;13;
52672;PMS5003;38568;53.260;-2.504;2023-06-14T15:46:59;12;12;
52672;PMS5003;38568;53.260;-2.504;2023-06-14T15:49:24;12;12;
52672;PMS5003;38568;53.260;-2.504;2023-06-14T15:51:50;15;14;
52672;PMS5003;38568;53.260;-2.504;2023-06-14T15:54:14;12;12;
52672;PMS5003;38568;53.260;-2.504;2023-06-14T15:56:39;12;11;
52672;PMS5003;38568;53.260;-2.504;2023-06-14T15:59:05;13;13;
52672;PMS5003;38568;53.260;-2.504;2023-06-14T16:01:30;14;12;
52672;PMS5003;38568;53.260;-2.504;2023-06-14T16:03:55;15;15;